OMSJ/SHJ METAR and TAF weather

Enter ICAO airport designator
Station Type Date Time Source
OMSJ METAR 2020/09/22 21:00 UTC NOAA

OMSJ 222100Z 13003KT 6000 NSC 29/24 Q1003 NOSIG


Station Type Date Time Source
OMSJ Decoded METAR 2020/09/22 21:00 UTC NOAA

Sharjah International Airport, United Arab Emirates (OMSJ) 25-20N 055-31E 33M
Sep 22, 2020 - 05:00 PM EDT / 2020.09.22 2100 UTC
Wind: from the SE (130 degrees) at 3 MPH (3 KT):0
Visibility: 3 mile(s):0
Temperature: 84 F (29 C)
Dew Point: 75 F (24 C)
Relative Humidity: 74%
Pressure (altimeter): 29.62 in. Hg (1003 hPa)
ob: OMSJ 222100Z 13003KT 6000 NSC 29/24 Q1003 NOSIG
cycle: 21

Station Type Date Time Source
OMSJ TAF 2020/09/22 18:01 UTC NOAA

TAF OMSJ 221652Z 2218/2400 10005KT 8000 NSC PROB40 2221/2304 4000 HZ PROB30 2223/2303 0100 FG VV///
BECMG 2308/2310 33012KT
BECMG 2315/2317 12005KT

Example: see airport list